Time;durP1;ratioP1;P1;durP2;ratioP2;P2;SDS_P1;SDS_P2;PMS_P1;PMS_P2;Temp;Humidity;BMP_temperature;BMP_pressure;BME280_temperature;BME280_humidity;BME280_pressure;Samples;Min_cycle;Max_cycle;Signal;HPM_P1;HPM_P2
2022/05/20 00:00:05;;;;;;;42.67;32.63;;;;;13.90;101668.00;;;;9992894;29;20201;-76
2022/05/20 00:05:07;;;;;;;46.23;35.97;;;;;13.90;101673.00;;;;9978323;29;20266;-80
2022/05/20 00:10:12;;;;;;;53.03;39.23;;;;;14.00;101678.00;;;;9977392;29;20209;-79
2022/05/20 00:15:19;;;;;;;48.10;34.90;;;;;14.00;101668.00;;;;9977243;29;20273;-80
2022/05/20 00:20:24;;;;;;;48.70;35.97;;;;;14.00;101668.00;;;;9961625;29;20571;-77
2022/05/20 00:31:07;;;;;;;49.33;35.53;;;;;13.90;101668.00;;;;10023338;29;20201;-79
2022/05/20 00:36:09;;;;;;;41.03;32.57;;;;;13.90;101656.00;;;;10006218;29;20197;-79
2022/05/20 00:41:10;;;;;;;44.83;33.67;;;;;13.80;101646.00;;;;9992066;29;20202;-79
2022/05/20 00:46:19;;;;;;;45.07;34.90;;;;;13.70;101645.00;;;;9976024;29;20218;-80
2022/05/20 00:51:29;;;;;;;47.57;36.97;;;;;13.60;101628.00;;;;10005296;29;20186;-79
2022/05/20 00:56:37;;;;;;;46.43;36.37;;;;;13.50;101636.00;;;;9990767;29;20205;-79
2022/05/20 01:01:40;;;;;;;51.27;37.70;;;;;13.50;101629.00;;;;9990003;29;20213;-79
2022/05/20 01:06:42;;;;;;;54.33;40.90;;;;;13.50;101624.00;;;;9989466;29;20693;-79
2022/05/20 01:11:44;;;;;;;52.77;37.67;;;;;13.40;101625.00;;;;9975060;29;20234;-79
2022/05/20 01:16:46;;;;;;;54.37;38.03;;;;;13.40;101612.00;;;;10004721;29;20582;-79
2022/05/20 01:21:48;;;;;;;55.00;40.30;;;;;13.30;101609.00;;;;9989239;29;20569;-79
2022/05/20 01:26:50;;;;;;;56.53;39.27;;;;;13.20;101616.00;;;;10004578;29;20217;-79
2022/05/20 01:31:52;;;;;;;56.43;42.50;;;;;13.20;101622.00;;;;9989075;29;20614;-78
2022/05/20 01:36:54;;;;;;;61.37;41.83;;;;;13.30;101594.00;;;;9989138;29;20246;-79
2022/05/20 01:42:06;;;;;;;61.13;42.67;;;;;13.20;101586.00;;;;10004243;29;20278;-79
2022/05/20 01:47:25;;;;;;;64.03;44.73;;;;;13.20;101575.00;;;;9959109;29;20218;-79
2022/05/20 01:52:36;;;;;;;63.63;43.40;;;;;13.20;101572.00;;;;10003976;29;20216;-79
2022/05/20 01:58:20;;;;;;;65.20;44.67;;;;;13.20;101569.00;;;;10004292;29;20250;-79
2022/05/20 02:03:29;;;;;;;59.33;40.27;;;;;13.10;101584.00;;;;9953794;29;20221;-79
2022/05/20 02:08:43;;;;;;;56.43;40.90;;;;;13.00;101586.00;;;;9958696;29;20256;-79
2022/05/20 02:13:53;;;;;;;58.47;43.20;;;;;13.00;101596.00;;;;9958330;29;20733;-79
2022/05/20 02:19:06;;;;;;;60.90;43.70;;;;;13.00;101575.00;;;;9958144;29;20214;-79
2022/05/20 02:24:12;;;;;;;72.40;47.47;;;;;13.00;101586.00;;;;9958245;29;20230;-79
2022/05/20 02:29:19;;;;;;;66.57;45.80;;;;;13.00;101573.00;;;;9988428;29;20816;-79
2022/05/20 02:34:21;;;;;;;63.60;45.63;;;;;13.00;101587.00;;;;10010585;29;20189;-79
2022/05/20 02:39:23;;;;;;;61.57;43.07;;;;;12.90;101577.00;;;;9980651;29;20565;-79
2022/05/20 02:44:25;;;;;;;64.67;42.83;;;;;12.80;101564.00;;;;10026348;29;20217;-79
2022/05/20 02:49:26;;;;;;;67.03;45.27;;;;;12.70;101557.00;;;;10009732;29;21162;-79
2022/05/20 02:54:28;;;;;;;65.17;44.90;;;;;12.70;101547.00;;;;9971848;29;20213;-79
2022/05/20 03:04:51;;;;;;;69.50;48.20;;;;;12.80;101541.00;;;;10009134;29;20851;-79
2022/05/20 03:09:53;;;;;;;74.63;50.77;;;;;12.80;101533.00;;;;9994258;29;20202;-79
2022/05/20 03:14:55;;;;;;;77.17;48.63;;;;;12.90;101530.00;;;;9993350;29;20198;-79
2022/05/20 03:19:57;;;;;;;77.30;49.27;;;;;12.90;101535.00;;;;9993799;29;20230;-79
2022/05/20 03:24:59;;;;;;;77.67;52.77;;;;;12.90;101530.00;;;;9993436;29;20214;-79
2022/05/20 03:30:01;;;;;;;76.27;52.87;;;;;12.90;101532.00;;;;10000616;29;20206;-79
2022/05/20 03:35:04;;;;;;;83.30;53.73;;;;;12.90;101517.00;;;;9993088;29;20280;-79
2022/05/20 03:40:07;;;;;;;75.77;51.13;;;;;12.90;101514.00;;;;10022958;29;20351;-79
2022/05/20 03:45:10;;;;;;;82.30;53.77;;;;;13.00;101522.00;;;;9992456;29;20221;-79
2022/05/20 03:50:11;;;;;;;83.83;53.80;;;;;13.00;101515.00;;;;10022384;29;20216;-79
2022/05/20 03:55:13;;;;;;;84.63;55.27;;;;;13.10;101505.00;;;;9977029;29;20631;-79
2022/05/20 04:00:16;;;;;;;82.63;54.40;;;;;13.20;101512.00;;;;9990397;29;20206;-77
2022/05/20 04:05:18;;;;;;;76.47;51.27;;;;;13.30;101514.00;;;;9991430;29;20677;-79
2022/05/20 04:10:20;;;;;;;72.13;51.97;;;;;13.30;101495.00;;;;10007081;29;20198;-79
2022/05/20 04:15:22;;;;;;;81.60;50.10;;;;;13.30;101479.00;;;;10006818;29;20194;-79
2022/05/20 04:20:23;;;;;;;83.67;54.30;;;;;13.40;101476.00;;;;10021689;29;20285;-79
2022/05/20 04:25:25;;;;;;;89.03;56.37;;;;;13.70;101482.00;;;;9989779;29;20757;-79
2022/05/20 04:30:27;;;;;;;81.37;55.17;;;;;14.00;101480.00;;;;9990598;29;20308;-79
2022/05/20 04:35:29;;;;;;;91.10;55.30;;;;;14.20;101490.00;;;;10005809;29;20198;-79
2022/05/20 04:40:31;;;;;;;75.60;52.80;;;;;14.20;101495.00;;;;10005675;29;20198;-79
2022/05/20 04:50:54;;;;;;;67.87;49.03;;;;;14.20;101490.00;;;;9989963;29;20203;-79
2022/05/20 04:55:55;;;;;;;70.23;49.30;;;;;14.50;101488.00;;;;9975526;29;20246;-79
2022/05/20 05:00:58;;;;;;;70.17;51.00;;;;;15.00;101477.00;;;;9990034;29;20213;-79
2022/05/20 05:05:59;;;;;;;75.17;50.43;;;;;15.40;101475.00;;;;9989477;29;20213;-79
2022/05/20 05:11:01;;;;;;;63.93;47.40;;;;;15.30;101476.00;;;;9989627;29;20683;-79
2022/05/20 05:16:07;;;;;;;65.07;47.03;;;;;15.00;101464.00;;;;9989770;29;20190;-79
2022/05/20 05:21:13;;;;;;;64.03;47.53;;;;;15.00;101484.00;;;;10004221;29;20261;-79
2022/05/20 05:26:15;;;;;;;61.23;46.97;;;;;15.10;101488.00;;;;10004283;29;20222;-79
2022/05/20 05:31:17;;;;;;;66.40;47.57;;;;;15.70;101476.00;;;;10004522;29;20237;-76
2022/05/20 05:36:20;;;;;;;65.83;47.60;;;;;16.20;101487.00;;;;10004281;29;20676;-79
2022/05/20 05:41:21;;;;;;;60.53;45.87;;;;;16.20;101476.00;;;;9989042;29;20654;-77
2022/05/20 05:46:24;;;;;;;57.40;44.97;;;;;17.10;101475.00;;;;9988730;29;20221;-76
2022/05/20 05:51:26;;;;;;;54.80;41.80;;;;;17.30;101477.00;;;;9973849;29;20666;-77
2022/05/20 05:56:28;;;;;;;45.88;39.97;;;;;17.60;101461.00;;;;9988940;29;20197;-76
2022/05/20 06:01:30;;;;;;;44.53;39.17;;;;;18.00;101459.00;;;;10003666;29;20213;-77
2022/05/20 06:06:38;;;;;;;45.67;38.13;;;;;18.60;101460.00;;;;9988637;29;20214;-76
2022/05/20 06:11:40;;;;;;;39.75;35.45;;;;;18.50;101467.00;;;;9988446;29;20202;-78
2022/05/20 06:16:42;;;;;;;44.03;35.58;;;;;18.60;101466.00;;;;9978050;29;20198;-77
2022/05/20 06:21:44;;;;;;;43.55;36.95;;;;;19.40;101453.00;;;;9977738;29;20270;-77
2022/05/20 06:26:47;;;;;;;41.05;34.70;;;;;19.70;101450.00;;;;9996311;29;20361;-77
2022/05/20 06:31:49;;;;;;;39.95;34.35;;;;;20.20;101443.00;;;;9956303;29;20285;-77
2022/05/20 06:42:11;;;;;;;37.40;32.08;;;;;21.50;101445.00;;;;9974831;29;20557;-77
2022/05/20 06:47:17;;;;;;;39.80;34.05;;;;;21.60;101446.00;;;;10030592;29;20217;-77
2022/05/20 06:52:19;;;;;;;38.15;32.63;;;;;21.60;101443.00;;;;9994584;29;20289;-77
2022/05/20 06:57:40;;;;;;;39.72;35.42;;;;;21.30;101436.00;;;;10000963;29;20217;-77
2022/05/20 07:02:43;;;;;;;39.38;35.17;;;;;21.20;101425.00;;;;9982412;29;20201;-77
2022/05/20 07:07:46;;;;;;;39.70;34.60;;;;;21.30;101413.00;;;;9978701;29;20214;-77
2022/05/20 07:12:48;;;;;;;40.83;36.22;;;;;21.50;101418.00;;;;9990059;29;20665;-77
2022/05/20 07:17:50;;;;;;;39.78;35.45;;;;;21.60;101395.00;;;;10010340;29;20577;-77
2022/05/20 07:22:52;;;;;;;45.03;37.75;;;;;22.00;101402.00;;;;10033834;29;20234;-77
2022/05/20 07:27:59;;;;;;;46.63;37.25;;;;;21.90;101398.00;;;;10001560;29;20218;-77
2022/05/20 07:33:01;;;;;;;42.83;36.97;;;;;21.60;101388.00;;;;10007115;29;20577;-77
2022/05/20 07:38:03;;;;;;;46.53;36.42;;;;;21.50;101383.00;;;;9991358;29;20246;-77
2022/05/20 07:43:05;;;;;;;42.58;37.88;;;;;21.20;101364.00;;;;10030164;29;20205;-77
2022/05/20 07:48:07;;;;;;;46.85;37.92;;;;;20.90;101366.00;;;;10007945;29;20214;-77
2022/05/20 07:53:29;;;;;;;46.38;39.63;;;;;21.00;101374.00;;;;9992305;29;20241;-77
2022/05/20 07:58:37;;;;;;;48.42;37.42;;;;;21.10;101365.00;;;;10006915;29;20246;-77
2022/05/20 08:09:16;;;;;;;42.00;37.35;;;;;22.40;101340.00;;;;10022882;29;20555;-77
2022/05/20 08:14:18;;;;;;;44.53;37.58;;;;;21.80;101328.00;;;;9990842;29;20217;-77
2022/05/20 08:19:20;;;;;;;44.90;40.13;;;;;22.20;101317.00;;;;9990670;29;20233;-77
2022/05/20 08:24:22;;;;;;;43.15;36.47;;;;;23.10;101303.00;;;;10017110;29;20324;-77
2022/05/20 08:29:24;;;;;;;46.83;37.30;;;;;24.20;101301.00;;;;10049299;29;20669;-77
2022/05/20 08:34:26;;;;;;;39.95;35.63;;;;;24.30;101282.00;;;;9964141;29;20671;-77
2022/05/20 08:39:28;;;;;;;39.60;35.25;;;;;24.50;101271.00;;;;9999535;29;20205;-77
2022/05/20 08:44:32;;;;;;;44.38;37.88;;;;;24.30;101270.00;;;;9989589;29;20265;-77
2022/05/20 08:49:36;;;;;;;43.17;38.45;;;;;23.90;101266.00;;;;10041087;29;20197;-76
2022/05/20 08:54:41;;;;;;;41.95;36.75;;;;;23.60;101239.00;;;;10059479;29;20717;-77
2022/05/20 09:00:11;;;;;;;47.00;39.22;;;;;23.30;101244.00;;;;9974857;29;20193;-77
2022/05/20 09:05:17;;;;;;;42.47;37.88;;;;;23.10;101235.00;;;;9988722;29;20685;-77
2022/05/20 09:10:29;;;;;;;43.10;37.95;;;;;22.90;101222.00;;;;10015614;29;20216;-77
2022/05/20 09:15:46;;;;;;;46.00;38.38;;;;;22.70;101215.00;;;;9988940;29;20229;-76
2022/05/20 09:20:51;;;;;;;42.53;37.80;;;;;22.70;101196.00;;;;10013685;29;20239;-77
2022/05/20 09:26:11;;;;;;;44.58;39.58;;;;;22.60;101189.00;;;;10025246;29;20213;-77
2022/05/20 09:31:34;;;;;;;43.95;39.05;;;;;22.40;101174.00;;;;10026358;29;20278;-77
2022/05/20 09:36:59;;;;;;;44.90;39.85;;;;;22.30;101164.00;;;;9988392;29;20586;-77
2022/05/20 09:42:10;;;;;;;43.97;37.80;;;;;22.30;101133.00;;;;9973498;29;20658;-78
2022/05/20 09:47:19;;;;;;;44.30;39.22;;;;;22.30;101112.00;;;;10015908;29;20221;-78
2022/05/20 09:52:23;;;;;;;43.08;37.42;;;;;22.20;101108.00;;;;10001800;29;20198;-78
2022/05/20 09:57:36;;;;;;;46.97;38.88;;;;;22.30;101093.00;;;;10024060;29;20670;-77
2022/05/20 10:02:44;;;;;;;43.25;37.50;;;;;22.40;101064.00;;;;9997366;29;20616;-78
2022/05/20 10:08:02;;;;;;;44.70;38.22;;;;;22.80;101045.00;;;;9979594;29;20266;-77
2022/05/20 10:13:07;;;;;;;40.30;35.90;;;;;23.20;101051.00;;;;10015995;29;20205;-77
2022/05/20 10:18:34;;;;;;;43.38;38.60;;;;;23.60;101038.00;;;;9989878;29;20206;-77
2022/05/20 10:23:51;;;;;;;40.78;36.13;;;;;23.70;101022.00;;;;9996552;29;20270;-77
2022/05/20 10:34:25;;;;;;;45.03;36.35;;;;;23.60;100983.00;;;;10038704;29;20206;-77
2022/05/20 10:39:44;;;;;;;41.38;36.08;;;;;24.00;100989.00;;;;10009849;29;20219;-77
2022/05/20 10:50:40;;;;;;;42.72;34.75;;;;;23.30;100998.00;;;;10027043;29;20668;-77
2022/05/20 10:56:04;;;;;;;39.25;34.95;;;;;22.40;100992.00;;;;10009327;29;20197;-78
2022/05/20 11:01:28;;;;;;;43.78;36.83;;;;;21.60;100975.00;;;;10003063;29;20209;-78
2022/05/20 11:06:43;;;;;;;40.30;35.90;;;;;21.00;100973.00;;;;9987566;29;20320;-78
2022/05/20 11:12:05;;;;;;;42.60;36.63;;;;;20.40;101018.00;;;;10008464;29;20238;-78
2022/05/20 11:17:19;;;;;;;46.90;37.13;;;;;19.90;101072.00;;;;9997613;29;20225;-78
2022/05/20 11:22:34;;;;;;;47.47;38.40;;;;;19.40;101040.00;;;;9993152;29;20240;-75
2022/05/20 11:27:58;;;;;;;50.05;41.03;;;;;19.10;101002.00;;;;9993817;29;20210;-76
2022/05/20 11:33:23;;;;;;;52.83;41.58;;;;;19.00;100917.00;;;;9972502;29;20197;-76
2022/05/20 11:39:00;;;;;;;60.47;45.28;;;;;19.10;100856.00;;;;10030059;29;20284;-76
2022/05/20 11:44:15;;;;;;;60.65;47.25;;;;;19.60;100843.00;;;;9940306;29;20556;-76
2022/05/20 11:49:36;;;;;;;58.35;46.95;;;;;20.00;100815.00;;;;10027148;29;20217;-76
2022/05/20 11:54:57;;;;;;;53.67;42.72;;;;;20.60;100817.00;;;;10010497;29;20197;-76
2022/05/20 12:00:03;;;;;;;43.50;33.33;;;;;21.30;100797.00;;;;9999099;29;20224;-76
2022/05/20 12:05:11;;;;;;;30.52;25.05;;;;;21.40;100793.00;;;;10019594;29;20666;-77
2022/05/20 12:10:31;;;;;;;20.90;18.30;;;;;21.70;100803.00;;;;9987906;29;20249;-76
2022/05/20 12:15:40;;;;;;;15.32;11.50;;;;;22.00;100816.00;;;;10009752;29;20228;-76
2022/05/20 12:26:24;;;;;;;4.50;2.95;;;;;22.40;100836.00;;;;9993113;29;20217;-77
2022/05/20 12:31:29;;;;;;;4.75;2.00;;;;;22.60;100852.00;;;;10003710;29;20224;-77
2022/05/20 12:36:31;;;;;;;4.25;2.10;;;;;22.30;100856.00;;;;9989586;29;20204;-77
2022/05/20 12:41:33;;;;;;;6.68;2.30;;;;;22.20;100852.00;;;;10023580;29;20193;-76
2022/05/20 12:46:57;;;;;;;3.50;1.90;;;;;22.40;100889.00;;;;10015717;29;20205;-77
2022/05/20 12:52:21;;;;;;;5.45;2.00;;;;;21.80;100904.00;;;;9979443;29;20196;-77
2022/05/20 12:57:30;;;;;;;4.32;2.40;;;;;21.00;100924.00;;;;9994137;29;20220;-77
2022/05/20 13:02:36;;;;;;;4.40;2.58;;;;;20.30;100917.00;;;;9980423;29;20654;-77
2022/05/20 13:07:39;;;;;;;4.78;2.45;;;;;19.90;100917.00;;;;9985460;29;20214;-77
2022/05/20 13:12:48;;;;;;;5.80;3.10;;;;;20.00;100903.00;;;;10042394;29;20196;-77
2022/05/20 13:18:01;;;;;;;7.18;3.67;;;;;19.90;100897.00;;;;9996067;29;20317;-76
2022/05/20 13:23:06;;;;;;;6.93;4.05;;;;;20.70;100872.00;;;;9976995;29;20216;-76
2022/05/20 13:28:08;;;;;;;6.82;4.03;;;;;22.00;100875.00;;;;9969321;29;20229;-76
2022/05/20 13:33:10;;;;;;;6.07;4.03;;;;;21.90;100867.00;;;;10003276;29;20197;-76
2022/05/20 13:38:12;;;;;;;7.47;4.07;;;;;23.90;100853.00;;;;9988398;29;20190;-76
2022/05/20 13:43:15;;;;;;;4.18;3.13;;;;;23.60;100864.00;;;;9988310;29;20753;-76
2022/05/20 13:53:41;;;;;;;7.15;3.67;;;;;22.10;100866.00;;;;10025773;29;20228;-76
2022/05/20 13:58:44;;;;;;;6.15;5.03;;;;;21.60;100885.00;;;;10030175;29;20614;-76
2022/05/20 14:03:48;;;;;;;8.27;6.45;;;;;20.50;100919.00;;;;9992125;29;20216;-77
2022/05/20 14:08:58;;;;;;;21.98;19.40;;;;;20.20;100943.00;;;;10027832;29;20260;-76
2022/05/20 14:14:11;;;;;;;20.48;18.27;;;;;19.70;100958.00;;;;9984181;29;20205;-76
2022/05/20 14:19:29;;;;;;;15.73;14.13;;;;;18.80;101000.00;;;;10032297;29;20216;-76
2022/05/20 14:24:38;;;;;;;11.90;10.80;;;;;17.90;101006.00;;;;10020241;29;20617;-76
2022/05/20 14:29:42;;;;;;;8.02;7.07;;;;;17.30;101025.00;;;;9984711;29;20926;-75
2022/05/20 14:35:03;;;;;;;5.72;4.47;;;;;16.90;101025.00;;;;10011821;29;20239;-76
2022/05/20 14:40:12;;;;;;;4.88;4.47;;;;;17.80;101017.00;;;;10023198;29;20250;-75
2022/05/20 14:45:31;;;;;;;4.85;4.10;;;;;16.80;101042.00;;;;10005149;29;20217;-76
2022/05/20 14:50:34;;;;;;;5.50;4.30;;;;;16.40;101048.00;;;;10012705;29;20224;-76
2022/05/20 14:55:45;;;;;;;5.68;5.07;;;;;16.80;101064.00;;;;9991130;29;20197;-76
2022/05/20 15:01:07;;;;;;;5.55;4.90;;;;;16.40;101075.00;;;;10005887;29;20198;-76
2022/05/20 15:06:17;;;;;;;5.85;4.95;;;;;16.70;101064.00;;;;10004976;29;20393;-76
2022/05/20 15:11:23;;;;;;;7.22;5.05;;;;;17.80;101088.00;;;;9992611;29;20240;-75
2022/05/20 15:16:25;;;;;;;5.80;3.95;;;;;18.80;101085.00;;;;10003604;29;20333;-75
2022/05/20 15:21:34;;;;;;;4.78;3.20;;;;;19.10;101106.00;;;;10009441;29;20234;-76
2022/05/20 15:26:38;;;;;;;4.60;2.60;;;;;19.90;101116.00;;;;10007235;29;20214;-76
2022/05/20 15:37:05;;;;;;;3.78;2.50;;;;;18.20;101120.00;;;;10017222;29;20192;-75
2022/05/20 15:42:08;;;;;;;2.78;2.40;;;;;17.50;101128.00;;;;9972179;29;20206;-76
2022/05/20 15:47:12;;;;;;;5.72;4.07;;;;;17.00;101134.00;;;;9979816;29;20777;-76
2022/05/20 15:52:18;;;;;;;13.30;6.07;;;;;16.50;101153.00;;;;9985874;29;20218;-76
2022/05/20 15:57:22;;;;;;;6.78;5.63;;;;;16.10;101167.00;;;;9969358;29;20575;-76
2022/05/20 16:02:24;;;;;;;9.13;5.03;;;;;16.00;101173.00;;;;9995110;29;20206;-76
2022/05/20 16:07:27;;;;;;;5.00;4.57;;;;;16.50;101179.00;;;;9977020;29;20297;-76
2022/05/20 16:12:29;;;;;;;8.65;4.93;;;;;16.70;101202.00;;;;10012122;29;20202;-76
2022/05/20 16:17:32;;;;;;;9.65;5.60;;;;;16.60;101212.00;;;;9982910;29;20214;-76
2022/05/20 16:22:36;;;;;;;8.13;5.80;;;;;16.50;101217.00;;;;9972313;29;20218;-76
2022/05/20 16:27:45;;;;;;;10.23;8.52;;;;;16.20;101223.00;;;;10009360;29;21019;-76
2022/05/20 16:32:48;;;;;;;9.63;8.25;;;;;15.70;101248.00;;;;9995303;29;20198;-76
2022/05/20 16:37:51;;;;;;;10.80;9.03;;;;;15.40;101255.00;;;;9994713;29;20202;-76
2022/05/20 16:43:00;;;;;;;10.83;8.70;;;;;15.40;101258.00;;;;9984829;29;20205;-77
2022/05/20 16:48:12;;;;;;;11.77;7.30;;;;;15.00;101261.00;;;;10019662;29;20677;-76
2022/05/20 16:53:17;;;;;;;8.73;6.63;;;;;14.80;101282.00;;;;10003553;29;20236;-77
2022/05/20 17:03:53;;;;;;;8.77;5.30;;;;;14.80;101309.00;;;;9961669;29;20250;-77
2022/05/20 17:08:55;;;;;;;8.20;5.57;;;;;14.80;101317.00;;;;10011297;29;20626;-77
2022/05/20 17:13:58;;;;;;;11.57;5.07;;;;;14.90;101297.00;;;;9993724;29;20917;-76
2022/05/20 17:18:59;;;;;;;9.33;4.83;;;;;14.80;101327.00;;;;9986090;29;20670;-77
2022/05/20 17:29:23;;;;;;;4.77;2.40;;;;;16.00;101324.00;;;;9997353;29;20308;-77
2022/05/20 17:34:29;;;;;;;3.50;2.13;;;;;16.10;101318.00;;;;9987953;29;20254;-77
2022/05/20 17:39:32;;;;;;;4.27;2.53;;;;;16.30;101321.00;;;;9986899;29;20196;-77
2022/05/20 17:44:35;;;;;;;7.27;2.40;;;;;16.70;101334.00;;;;9986184;29;20243;-77
2022/05/20 17:49:39;;;;;;;4.77;2.07;;;;;16.20;101336.00;;;;10011427;29;20222;-77
2022/05/20 17:54:42;;;;;;;3.22;1.83;;;;;15.70;101336.00;;;;10006943;29;20210;-77
2022/05/20 17:59:45;;;;;;;5.50;1.85;;;;;15.70;101341.00;;;;9988583;29;20194;-77
2022/05/20 18:04:47;;;;;;;2.43;1.50;;;;;15.50;101340.00;;;;10004388;29;20211;-77
2022/05/20 18:09:49;;;;;;;3.40;1.37;;;;;15.30;101351.00;;;;9971910;29;20350;-76
2022/05/20 18:14:52;;;;;;;4.27;1.10;;;;;15.40;101338.00;;;;9985590;29;20209;-77
2022/05/20 18:19:55;;;;;;;5.43;1.27;;;;;15.50;101349.00;;;;9996004;29;20228;-77
2022/05/20 18:24:57;;;;;;;1.63;0.83;;;;;15.00;101365.00;;;;9976531;29;20230;-77
2022/05/20 18:30:04;;;;;;;4.73;1.30;;;;;14.90;101375.00;;;;10008230;29;20225;-77
2022/05/20 18:40:28;;;;;;;5.27;1.60;;;;;14.60;101387.00;;;;9978690;29;20603;-76
2022/05/20 18:45:31;;;;;;;2.37;1.20;;;;;14.60;101416.00;;;;9964380;29;20274;-77
2022/05/20 18:50:33;;;;;;;3.43;1.63;;;;;14.60;101414.00;;;;10008555;29;20221;-77
2022/05/20 18:55:35;;;;;;;2.00;1.27;;;;;14.60;101411.00;;;;10003919;29;20202;-77
2022/05/20 19:00:37;;;;;;;4.77;1.70;;;;;14.50;101419.00;;;;10002859;29;20262;-77
2022/05/20 19:05:39;;;;;;;6.47;1.83;;;;;14.50;101437.00;;;;10009936;29;20296;-77
2022/05/20 19:10:41;;;;;;;3.90;1.60;;;;;14.40;101440.00;;;;10013327;29;20216;-77
2022/05/20 19:15:43;;;;;;;5.03;1.87;;;;;14.30;101455.00;;;;10004438;29;20207;-77
2022/05/20 19:20:45;;;;;;;4.33;2.00;;;;;14.20;101441.00;;;;10002711;29;20362;-77
2022/05/20 19:25:48;;;;;;;4.70;2.10;;;;;13.90;101457.00;;;;9999333;29;20210;-77
2022/05/20 19:30:54;;;;;;;3.83;2.57;;;;;13.70;101483.00;;;;10007638;29;20741;-77
2022/05/20 19:35:56;;;;;;;5.87;3.60;;;;;13.50;101467.00;;;;10002252;29;20284;-77
2022/05/20 19:40:58;;;;;;;7.43;5.07;;;;;13.40;101493.00;;;;9993837;29;20201;-77
2022/05/20 19:46:01;;;;;;;8.03;7.23;;;;;13.30;101497.00;;;;10003158;29;20283;-77
2022/05/20 19:51:04;;;;;;;9.23;8.33;;;;;13.20;101489.00;;;;10018504;29;20412;-78
2022/05/20 19:56:06;;;;;;;11.93;8.90;;;;;13.10;101496.00;;;;10019502;29;20250;-78
2022/05/20 20:01:08;;;;;;;10.80;9.00;;;;;13.00;101491.00;;;;10022731;29;20289;-77
2022/05/20 20:06:15;;;;;;;9.97;8.80;;;;;12.90;101498.00;;;;10022621;29;20307;-77
2022/05/20 20:11:21;;;;;;;10.27;9.27;;;;;12.80;101501.00;;;;9945991;29;20922;-77
2022/05/20 20:16:23;;;;;;;8.93;8.13;;;;;12.80;101513.00;;;;10006774;29;20202;-77
2022/05/20 20:27:05;;;;;;;6.77;5.43;;;;;12.70;101510.00;;;;9970688;29;20686;-77
2022/05/20 20:32:08;;;;;;;5.10;4.60;;;;;12.70;101516.00;;;;9990356;29;20206;-77
2022/05/20 20:37:10;;;;;;;4.90;3.57;;;;;12.70;101524.00;;;;9956434;29;20610;-77
2022/05/20 20:42:13;;;;;;;6.87;3.83;;;;;12.70;101535.00;;;;10005204;29;20684;-77
2022/05/20 20:47:34;;;;;;;4.47;3.20;;;;;12.70;101547.00;;;;9978213;29;20239;-77
2022/05/20 20:52:36;;;;;;;4.77;3.30;;;;;12.70;101566.00;;;;9966942;29;20199;-77
2022/05/20 20:57:38;;;;;;;4.43;3.17;;;;;12.60;101563.00;;;;9999488;29;20590;-77
2022/05/20 21:02:40;;;;;;;4.20;2.60;;;;;12.60;101567.00;;;;9970526;29;20214;-77
2022/05/20 21:07:43;;;;;;;11.10;2.90;;;;;12.50;101572.00;;;;10002763;29;20263;-77
2022/05/20 21:12:49;;;;;;;4.40;2.57;;;;;12.50;101583.00;;;;9995596;29;20773;-77
2022/05/20 21:17:50;;;;;;;4.97;2.50;;;;;12.50;101570.00;;;;9977793;29;20270;-77
2022/05/20 21:22:52;;;;;;;3.70;2.40;;;;;12.60;101587.00;;;;9995404;29;20218;-77
2022/05/20 21:27:58;;;;;;;3.40;2.27;;;;;12.60;101576.00;;;;9965625;29;20229;-78
2022/05/20 21:33:18;;;;;;;6.50;2.27;;;;;12.50;101562.00;;;;9986435;29;20458;-77
2022/05/20 21:38:21;;;;;;;3.10;1.70;;;;;12.40;101563.00;;;;9971778;29;20197;-77
2022/05/20 21:43:23;;;;;;;3.30;1.63;;;;;12.40;101564.00;;;;9972157;29;20206;-78
2022/05/20 21:48:25;;;;;;;3.97;1.70;;;;;12.40;101560.00;;;;9972932;29;20241;-78
2022/05/20 21:53:27;;;;;;;2.80;1.70;;;;;12.30;101560.00;;;;10000537;29;20574;-78
2022/05/20 21:58:29;;;;;;;3.30;1.90;;;;;12.30;101558.00;;;;10013628;29;20558;-77
2022/05/20 22:08:56;;;;;;;1.80;1.70;;;;;12.20;101567.00;;;;10000314;29;20217;-77
2022/05/20 22:13:59;;;;;;;4.43;2.07;;;;;12.20;101564.00;;;;9987943;29;20654;-77
2022/05/20 22:19:02;;;;;;;3.20;2.30;;;;;12.10;101567.00;;;;9975552;29;20781;-78
2022/05/20 22:24:04;;;;;;;3.03;1.90;;;;;12.00;101580.00;;;;10037442;29;20581;-77
2022/05/20 22:29:06;;;;;;;5.30;3.00;;;;;12.00;101573.00;;;;10025648;29;20308;-77
2022/05/20 22:34:08;;;;;;;4.80;2.33;;;;;12.00;101588.00;;;;10010821;29;20249;-78
2022/05/20 22:39:10;;;;;;;5.23;2.83;;;;;12.00;101595.00;;;;9975148;29;20221;-77
2022/05/20 22:44:14;;;;;;;7.07;2.60;;;;;12.00;101595.00;;;;10010590;29;20193;-78
2022/05/20 22:49:15;;;;;;;3.53;2.33;;;;;11.90;101594.00;;;;10007630;29;20240;-77
2022/05/20 22:54:18;;;;;;;4.67;1.87;;;;;12.00;101594.00;;;;9996006;29;20252;-77
2022/05/20 22:59:20;;;;;;;6.73;2.33;;;;;11.90;101583.00;;;;9994904;29;20566;-77
2022/05/20 23:04:22;;;;;;;5.43;2.27;;;;;11.90;101583.00;;;;10019963;29;20281;-77
2022/05/20 23:09:24;;;;;;;5.60;2.30;;;;;11.90;101575.00;;;;9991208;29;20248;-77
2022/05/20 23:14:26;;;;;;;5.47;2.00;;;;;11.80;101573.00;;;;9979453;29;20213;-77
2022/05/20 23:19:28;;;;;;;5.40;1.90;;;;;11.80;101577.00;;;;9979647;29;20226;-78
2022/05/20 23:24:29;;;;;;;5.83;2.10;;;;;11.80;101587.00;;;;9993770;29;20201;-78
2022/05/20 23:29:34;;;;;;;5.17;2.00;;;;;11.70;101577.00;;;;9987294;29;20712;-77
2022/05/20 23:34:36;;;;;;;12.77;3.27;;;;;11.70;101579.00;;;;9985228;29;20221;-78
2022/05/20 23:39:38;;;;;;;7.23;2.50;;;;;11.70;101582.00;;;;10020014;29;20205;-78
2022/05/20 23:44:40;;;;;;;6.03;2.53;;;;;11.60;101569.00;;;;9993042;29;20198;-77
2022/05/20 23:49:43;;;;;;;3.80;1.90;;;;;11.60;101573.00;;;;10023167;29;20250;-78
